createdAt,value
2023-03-19T00:00:56.035Z,4.40
2023-03-19T00:03:24.163Z,9.40
2023-03-19T00:05:53.854Z,10.40
2023-03-19T00:08:24.075Z,9.80
2023-03-19T00:10:52.357Z,9.60
2023-03-19T00:13:20.523Z,9.40
2023-03-19T00:15:48.696Z,9.00
2023-03-19T00:18:16.823Z,8.60
2023-03-19T00:20:45.083Z,10.80
2023-03-19T00:23:13.519Z,9.60
2023-03-19T00:25:43.253Z,12.00
2023-03-19T00:28:12.260Z,9.40
2023-03-19T00:30:41.202Z,11.20
2023-03-19T00:33:10.601Z,10.40
2023-03-19T00:35:40.623Z,13.00
2023-03-19T00:38:09.105Z,10.60
2023-03-19T00:40:37.389Z,9.00
2023-03-19T00:43:07.207Z,10.60
2023-03-19T00:45:36.152Z,9.20
2023-03-19T00:48:04.372Z,11.60
2023-03-19T00:50:32.543Z,15.00
2023-03-19T00:53:01.725Z,6.00
2023-03-19T00:55:30.023Z,13.20
2023-03-19T00:57:58.848Z,12.80
2023-03-19T01:00:28.744Z,11.60
2023-03-19T01:02:56.903Z,10.60
2023-03-19T01:05:25.083Z,12.80
2023-03-19T01:07:53.246Z,10.00
2023-03-19T01:10:21.807Z,12.00
2023-03-19T01:12:51.200Z,12.00
2023-03-19T01:17:50.284Z,14.60
2023-03-19T01:20:19.175Z,8.00
2023-03-19T01:22:47.498Z,15.60
2023-03-19T01:25:16.351Z,13.80
2023-03-19T01:27:54.851Z,8.40
2023-03-19T01:30:23.361Z,12.00
2023-03-19T01:33:08.372Z,14.60
2023-03-19T01:35:49.495Z,13.80
2023-03-19T01:38:19.886Z,12.80
2023-03-19T01:40:49.547Z,13.00
2023-03-19T01:43:19.063Z,12.00
2023-03-19T01:45:51.717Z,9.40
2023-03-19T01:48:42.059Z,11.00
2023-03-19T01:51:16.713Z,9.60
2023-03-19T01:53:58.874Z,11.60
2023-03-19T01:56:51.958Z,12.00
2023-03-19T01:59:31.010Z,9.80
2023-03-19T02:02:13.313Z,4.80
2023-03-19T02:04:44.691Z,7.00
2023-03-19T02:07:13.940Z,8.60
2023-03-19T02:09:42.406Z,6.00
2023-03-19T02:12:11.019Z,6.60
2023-03-19T02:14:39.197Z,7.00
2023-03-19T02:17:08.700Z,7.40
2023-03-19T02:19:44.761Z,8.00
2023-03-19T02:22:14.972Z,8.00
2023-03-19T02:24:46.640Z,7.80
2023-03-19T02:27:21.555Z,0.00
2023-03-19T02:29:51.784Z,8.20
2023-03-19T02:32:21.186Z,8.80
2023-03-19T02:34:49.388Z,6.20
2023-03-19T02:37:20.781Z,8.60
2023-03-19T02:39:55.618Z,7.40
2023-03-19T02:42:26.511Z,8.80
2023-03-19T02:44:54.643Z,9.00
2023-03-19T02:47:23.857Z,0.60
2023-03-19T02:49:52.313Z,3.60
2023-03-19T02:52:20.470Z,8.60
2023-03-19T02:54:48.710Z,4.00
2023-03-19T02:57:17.037Z,9.20
2023-03-19T02:59:46.672Z,6.80
2023-03-19T03:02:15.435Z,8.60
2023-03-19T03:04:43.675Z,12.00
2023-03-19T03:07:11.954Z,10.00
2023-03-19T03:09:40.770Z,7.80
2023-03-19T03:12:09.258Z,9.80
2023-03-19T03:14:38.220Z,9.60
2023-03-19T03:17:08.865Z,8.00
2023-03-19T03:19:37.055Z,13.40
2023-03-19T03:22:05.756Z,10.40
2023-03-19T03:24:33.890Z,10.80
2023-03-19T03:27:02.740Z,9.20
2023-03-19T03:29:31.455Z,6.60
2023-03-19T03:31:59.677Z,10.00
2023-03-19T03:34:29.743Z,9.80
2023-03-19T03:36:58.005Z,1.40
2023-03-19T03:39:26.710Z,3.80
2023-03-19T03:41:54.808Z,4.00
2023-03-19T03:44:23.877Z,9.80
2023-03-19T03:46:54.042Z,9.40
2023-03-19T03:49:22.217Z,10.80
2023-03-19T03:51:51.876Z,9.00
2023-03-19T03:54:20.144Z,9.00
2023-03-19T03:56:51.024Z,9.20
2023-03-19T03:59:19.137Z,12.80
2023-03-19T04:01:47.456Z,10.40
2023-03-19T04:04:15.645Z,7.40
2023-03-19T04:06:43.795Z,10.00
2023-03-19T04:09:24.763Z,10.20
2023-03-19T04:11:52.997Z,11.20
2023-03-19T04:14:21.206Z,9.40
2023-03-19T04:16:49.639Z,10.20
2023-03-19T04:19:17.917Z,9.00
2023-03-19T04:21:46.100Z,10.00
2023-03-19T04:24:14.670Z,9.40
2023-03-19T04:26:44.385Z,9.60
2023-03-19T04:29:12.808Z,9.00
2023-03-19T04:31:41.154Z,7.40
2023-03-19T04:34:09.398Z,9.60
2023-03-19T04:36:37.625Z,10.60
2023-03-19T04:39:06.115Z,9.00
2023-03-19T04:41:34.830Z,11.60
2023-03-19T04:44:26.445Z,10.40
2023-03-19T04:46:55.781Z,10.00
2023-03-19T04:49:24.719Z,12.20
2023-03-19T04:51:53.962Z,11.60
2023-03-19T04:54:22.064Z,15.00
2023-03-19T04:56:50.177Z,7.80
2023-03-19T04:59:18.542Z,7.60
2023-03-19T05:01:48.414Z,14.20
2023-03-19T05:04:21.620Z,10.80
2023-03-19T05:06:50.674Z,10.00
2023-03-19T05:09:19.328Z,13.80
2023-03-19T05:11:47.498Z,16.00
2023-03-19T05:14:20.262Z,15.00
2023-03-19T05:17:08.852Z,12.40
2023-03-19T05:19:57.219Z,14.80
2023-03-19T05:22:27.094Z,7.00
2023-03-19T05:24:56.398Z,12.60
2023-03-19T05:27:25.239Z,14.20
2023-03-19T05:30:04.622Z,7.20
2023-03-19T05:33:00.351Z,6.80
2023-03-19T05:35:36.786Z,9.80
2023-03-19T05:38:11.260Z,6.20
2023-03-19T05:40:42.383Z,6.80
2023-03-19T05:43:24.899Z,9.20
2023-03-19T05:45:54.057Z,15.80
2023-03-19T05:48:27.842Z,5.80
2023-03-19T05:50:56.387Z,11.20
2023-03-19T05:53:26.111Z,9.40
2023-03-19T05:56:14.414Z,7.80
2023-03-19T05:58:58.507Z,5.60
2023-03-19T06:01:32.806Z,8.20
2023-03-19T06:04:06.023Z,7.80
2023-03-19T06:06:35.702Z,7.80
2023-03-19T06:09:04.569Z,7.80
2023-03-19T06:11:40.747Z,6.20
2023-03-19T06:14:41.289Z,7.80
2023-03-19T06:17:35.477Z,6.60
2023-03-19T06:20:10.790Z,5.20
2023-03-19T06:22:39.324Z,6.20
2023-03-19T06:25:08.467Z,9.20
2023-03-19T06:27:38.961Z,10.00
2023-03-19T06:30:27.643Z,9.60
2023-03-19T06:32:58.309Z,9.00
2023-03-19T06:35:28.149Z,10.20
2023-03-19T06:37:56.997Z,13.80
2023-03-19T06:40:25.255Z,9.00
2023-03-19T06:42:53.411Z,14.20
2023-03-19T06:45:21.757Z,9.40
2023-03-19T06:47:52.365Z,11.20
2023-03-19T06:50:21.682Z,10.00
2023-03-19T06:52:52.254Z,9.20
2023-03-19T06:55:20.760Z,12.60
2023-03-19T06:57:50.205Z,13.00
2023-03-19T07:00:19.444Z,13.00
2023-03-19T07:02:47.756Z,9.00
2023-03-19T07:05:16.111Z,9.40
2023-03-19T07:07:44.294Z,7.00
2023-03-19T07:10:14.327Z,12.00
2023-03-19T07:12:42.651Z,9.00
2023-03-19T07:15:11.170Z,10.20
2023-03-19T07:17:39.419Z,8.20
2023-03-19T07:20:08.331Z,10.00
2023-03-19T07:22:36.578Z,9.00
2023-03-19T07:25:05.085Z,10.50
2023-03-19T07:27:34.949Z,7.50
2023-03-19T07:30:03.134Z,12.00
2023-03-19T07:32:31.822Z,6.75
2023-03-19T07:34:59.923Z,10.00
2023-03-19T07:37:28.095Z,9.50
2023-03-19T07:39:56.555Z,7.00
2023-03-19T07:42:24.841Z,9.25
2023-03-19T07:44:54.501Z,8.50
2023-03-19T07:47:28.990Z,14.00
2023-03-19T07:49:58.109Z,12.75
2023-03-19T07:52:26.319Z,10.50
2023-03-19T07:54:54.848Z,6.75
2023-03-19T07:57:22.928Z,7.00
2023-03-19T07:59:51.104Z,10.00
2023-03-19T08:02:22.919Z,10.60
2023-03-19T08:04:52.241Z,9.80
2023-03-19T08:07:20.333Z,17.00
2023-03-19T08:09:48.666Z,13.00
2023-03-19T08:12:16.961Z,12.25
2023-03-19T08:14:45.110Z,10.50
2023-03-19T08:17:13.230Z,11.50
2023-03-19T08:19:42.811Z,7.00
2023-03-19T08:22:11.135Z,5.00
2023-03-19T08:24:39.269Z,13.00
2023-03-19T08:27:08.196Z,14.80
2023-03-19T08:29:36.776Z,11.40
2023-03-19T08:32:05.349Z,9.80
2023-03-19T08:34:34.150Z,13.40
2023-03-19T08:37:03.720Z,10.60
2023-03-19T08:39:31.961Z,11.00
2023-03-19T08:42:00.201Z,13.00
2023-03-19T08:44:28.493Z,11.60
2023-03-19T08:46:56.642Z,14.00
2023-03-19T08:49:24.820Z,14.25
2023-03-19T08:51:53.071Z,13.75
2023-03-19T08:54:23.123Z,13.00
2023-03-19T08:56:51.508Z,8.00
2023-03-19T08:59:19.676Z,11.40
2023-03-19T09:01:48.046Z,9.75
2023-03-19T09:04:16.231Z,10.40
2023-03-19T09:06:45.280Z,8.20
2023-03-19T09:09:13.696Z,12.40
2023-03-19T09:11:43.246Z,12.80
2023-03-19T09:14:12.056Z,13.80
2023-03-19T09:16:40.493Z,13.00
2023-03-19T09:19:08.812Z,12.20
2023-03-19T09:21:37.148Z,15.40
2023-03-19T09:24:06.002Z,14.80
2023-03-19T09:26:34.199Z,12.50
2023-03-19T09:29:03.725Z,14.50
2023-03-19T09:31:32.209Z,12.50
2023-03-19T09:34:00.537Z,12.00
2023-03-19T09:36:28.806Z,11.00
2023-03-19T09:38:57.635Z,12.00
2023-03-19T09:41:30.790Z,8.50
2023-03-19T09:44:00.841Z,14.75
2023-03-19T09:46:34.155Z,10.75
2023-03-19T09:49:05.399Z,17.50
2023-03-19T09:51:37.960Z,12.50
2023-03-19T09:54:08.973Z,14.50
2023-03-19T09:56:37.236Z,13.50
2023-03-19T09:59:05.572Z,12.25
2023-03-19T10:01:37.367Z,12.00
2023-03-19T10:04:20.883Z,8.25
2023-03-19T10:06:49.138Z,9.00
2023-03-19T10:09:28.473Z,5.00
2023-03-19T10:12:03.763Z,13.75
2023-03-19T10:14:48.621Z,15.00
2023-03-19T10:17:20.966Z,14.25
2023-03-19T10:19:52.866Z,13.75
2023-03-19T10:22:23.114Z,11.00
2023-03-19T10:24:51.773Z,11.50
2023-03-19T10:27:21.149Z,15.00
2023-03-19T10:29:49.457Z,19.50
2023-03-19T10:32:21.263Z,17.75
2023-03-19T10:34:50.556Z,13.75
2023-03-19T10:37:20.851Z,13.75
2023-03-19T10:39:50.107Z,17.25
2023-03-19T10:42:22.711Z,20.25
2023-03-19T10:44:52.618Z,11.75
2023-03-19T10:47:26.369Z,15.00
2023-03-19T10:49:54.616Z,4.25
2023-03-19T10:52:24.189Z,12.00
2023-03-19T10:54:55.740Z,15.50
2023-03-19T10:57:26.480Z,19.50
2023-03-19T10:59:55.099Z,14.50
2023-03-19T11:02:28.048Z,13.25
2023-03-19T11:05:07.970Z,11.50
2023-03-19T11:07:37.374Z,11.75
2023-03-19T11:10:06.574Z,10.25
2023-03-19T11:12:37.353Z,7.00
2023-03-19T11:15:16.446Z,6.00
2023-03-19T11:17:49.025Z,10.25
2023-03-19T11:20:22.645Z,8.00
2023-03-19T11:22:51.826Z,8.25
2023-03-19T11:25:24.736Z,7.50
2023-03-19T11:27:59.681Z,7.50
2023-03-19T11:30:29.967Z,5.25
2023-03-19T11:33:17.001Z,5.00
2023-03-19T11:35:50.908Z,7.00
2023-03-19T11:38:22.028Z,9.00
2023-03-19T11:40:57.002Z,6.50
2023-03-19T11:43:42.251Z,10.00
2023-03-19T11:46:19.645Z,4.00
2023-03-19T11:49:10.888Z,1.50
2023-03-19T11:51:43.593Z,5.00
2023-03-19T11:54:18.376Z,7.50
2023-03-19T11:56:49.757Z,4.75
2023-03-19T11:59:25.793Z,11.50
2023-03-19T12:02:05.704Z,9.00
2023-03-19T12:04:46.065Z,4.50
2023-03-19T12:07:19.379Z,8.00
2023-03-19T12:09:51.114Z,9.00
2023-03-19T12:12:26.735Z,7.50
2023-03-19T12:15:02.651Z,8.75
2023-03-19T12:17:41.460Z,7.25
2023-03-19T12:20:24.417Z,9.50
2023-03-19T12:23:06.010Z,8.50
2023-03-19T12:25:46.188Z,9.50
2023-03-19T12:28:19.143Z,8.75
2023-03-19T12:30:52.519Z,9.00
2023-03-19T12:33:38.373Z,8.50
2023-03-19T12:36:11.151Z,4.50
2023-03-19T12:38:42.872Z,5.75
2023-03-19T12:41:12.844Z,7.00
2023-03-19T12:43:45.913Z,5.00
2023-03-19T12:46:15.638Z,8.50
2023-03-19T12:48:46.788Z,5.75
2023-03-19T12:51:17.781Z,7.00
2023-03-19T12:53:50.354Z,8.00
2023-03-19T12:56:21.617Z,5.75
2023-03-19T12:58:58.630Z,4.75
2023-03-19T13:01:29.260Z,9.00
2023-03-19T13:04:00.691Z,7.25
2023-03-19T13:06:31.743Z,8.00
2023-03-19T13:09:05.345Z,7.50
2023-03-19T13:11:37.170Z,10.00
2023-03-19T13:14:09.975Z,8.00
2023-03-19T13:16:41.310Z,9.00
2023-03-19T13:19:15.324Z,6.50
2023-03-19T13:21:45.017Z,12.00
2023-03-19T13:24:19.156Z,10.50
2023-03-19T13:26:47.951Z,9.00
2023-03-19T13:29:19.986Z,9.00
2023-03-19T13:31:48.854Z,8.75
2023-03-19T13:34:21.793Z,10.25
2023-03-19T13:36:54.244Z,10.00
2023-03-19T13:39:27.601Z,12.50
2023-03-19T13:41:59.932Z,8.75
2023-03-19T13:44:35.374Z,6.50
2023-03-19T13:47:04.578Z,8.50
2023-03-19T13:49:35.530Z,8.00
2023-03-19T13:52:24.359Z,9.75
2023-03-19T13:54:58.043Z,3.75
2023-03-19T13:57:35.931Z,7.00
2023-03-19T14:00:31.324Z,8.75
2023-03-19T14:03:00.001Z,6.50
2023-03-19T14:05:34.773Z,8.00
2023-03-19T14:08:03.341Z,6.00
2023-03-19T14:10:33.503Z,9.75
2023-03-19T14:13:08.345Z,9.50
2023-03-19T14:15:36.926Z,5.00
2023-03-19T14:18:06.380Z,9.00
2023-03-19T14:20:40.707Z,10.00
2023-03-19T14:23:23.385Z,7.00
2023-03-19T14:25:57.117Z,9.75
2023-03-19T14:28:30.032Z,7.25
2023-03-19T14:30:58.477Z,11.25
2023-03-19T14:33:27.939Z,8.00
2023-03-19T14:35:58.305Z,10.50
2023-03-19T14:38:29.705Z,11.50
2023-03-19T14:41:02.390Z,11.50
2023-03-19T14:43:42.103Z,13.25
2023-03-19T14:46:19.576Z,14.00
2023-03-19T14:49:17.552Z,12.50
2023-03-19T14:51:55.217Z,13.00
2023-03-19T14:54:27.949Z,16.00
2023-03-19T14:56:58.538Z,12.75
2023-03-19T14:59:26.938Z,10.25
2023-03-19T15:01:55.350Z,13.50
2023-03-19T15:04:24.631Z,14.00
2023-03-19T15:06:54.682Z,15.25
2023-03-19T15:09:27.004Z,15.00
2023-03-19T15:12:03.515Z,14.00
2023-03-19T15:14:41.755Z,13.00
2023-03-19T15:17:14.637Z,12.00
2023-03-19T15:19:42.886Z,18.00
2023-03-19T15:22:13.988Z,13.50
2023-03-19T15:24:42.648Z,15.00
2023-03-19T15:27:20.214Z,12.50
2023-03-19T15:29:49.921Z,13.50
2023-03-19T15:32:50.894Z,14.00
2023-03-19T15:35:22.677Z,13.80
2023-03-19T15:37:54.338Z,13.80
2023-03-19T15:40:24.196Z,14.40
2023-03-19T15:42:54.395Z,10.40
2023-03-19T15:45:24.565Z,12.40
2023-03-19T15:47:55.956Z,12.20
2023-03-19T15:50:25.751Z,10.60
2023-03-19T15:52:55.427Z,17.20
2023-03-19T15:55:26.359Z,16.40
2023-03-19T15:57:57.421Z,18.80
2023-03-19T16:00:25.955Z,10.00
2023-03-19T16:02:54.388Z,19.20
2023-03-19T16:05:26.530Z,19.00
2023-03-19T16:07:58.353Z,15.00
2023-03-19T16:10:36.797Z,18.20
2023-03-19T16:13:20.251Z,16.00
2023-03-19T16:15:49.691Z,15.20
2023-03-19T16:18:27.795Z,14.60
2023-03-19T16:21:08.383Z,14.20
2023-03-19T16:23:38.094Z,12.00
2023-03-19T16:26:12.625Z,13.60
2023-03-19T16:28:45.563Z,17.60
2023-03-19T16:31:24.780Z,20.60
2023-03-19T16:33:54.059Z,16.80
2023-03-19T16:36:22.813Z,16.80
2023-03-19T16:39:13.686Z,9.40
2023-03-19T16:41:42.385Z,13.80
2023-03-19T16:44:17.477Z,17.20
2023-03-19T16:46:46.999Z,19.00
2023-03-19T16:49:15.352Z,21.60
2023-03-19T16:51:43.706Z,19.80
2023-03-19T16:54:14.279Z,18.60
2023-03-19T16:56:42.758Z,18.60
2023-03-19T16:59:27.531Z,18.40
2023-03-19T17:01:57.312Z,18.20
2023-03-19T17:04:26.638Z,22.60
2023-03-19T17:06:55.078Z,18.40
2023-03-19T17:09:23.686Z,20.60
2023-03-19T17:11:53.505Z,15.60
2023-03-19T17:14:23.190Z,18.60
2023-03-19T17:16:52.325Z,13.00
2023-03-19T17:19:26.258Z,18.40
2023-03-19T17:21:56.984Z,15.40
2023-03-19T17:24:26.357Z,18.00
2023-03-19T17:26:55.448Z,14.20
2023-03-19T17:29:25.585Z,19.40
2023-03-19T17:31:54.951Z,15.60
2023-03-19T17:34:26.633Z,18.80
2023-03-19T17:36:56.281Z,18.40
2023-03-19T17:39:24.833Z,18.00
2023-03-19T17:41:54.094Z,16.40
2023-03-19T17:44:22.208Z,18.40
2023-03-19T17:46:51.490Z,15.40
2023-03-19T17:49:21.582Z,19.00
2023-03-19T17:51:51.616Z,19.00
2023-03-19T17:54:20.038Z,15.60
2023-03-19T17:56:48.625Z,19.00
2023-03-19T17:59:16.822Z,15.40
2023-03-19T18:01:47.292Z,16.20
2023-03-19T18:04:16.762Z,15.40
2023-03-19T18:06:47.338Z,19.00
2023-03-19T18:09:19.817Z,19.20
2023-03-19T18:11:48.170Z,19.20
2023-03-19T18:14:16.549Z,19.40
2023-03-19T18:16:45.337Z,22.00
2023-03-19T18:19:19.071Z,19.00
2023-03-19T18:21:47.283Z,20.20
2023-03-19T18:24:15.497Z,21.60
2023-03-19T18:26:47.273Z,21.80
2023-03-19T18:29:16.701Z,21.40
2023-03-19T18:31:45.494Z,21.00
2023-03-19T18:34:15.679Z,14.80
2023-03-19T18:36:44.153Z,25.00
2023-03-19T18:39:13.802Z,21.60
2023-03-19T18:41:42.359Z,18.40
2023-03-19T18:44:12.503Z,18.80
2023-03-19T18:46:41.913Z,21.60
2023-03-19T18:49:16.435Z,20.60
2023-03-19T18:51:59.041Z,21.80
2023-03-19T18:54:31.127Z,19.80
2023-03-19T18:57:00.709Z,22.40
2023-03-19T18:59:32.879Z,22.00
2023-03-19T19:02:05.016Z,15.20
2023-03-19T19:04:33.334Z,20.60
2023-03-19T19:07:02.690Z,20.60
2023-03-19T19:09:31.050Z,25.40
2023-03-19T19:12:01.063Z,21.20
2023-03-19T19:14:31.035Z,22.80
2023-03-19T19:16:59.452Z,13.00
2023-03-19T19:19:28.754Z,24.60
2023-03-19T19:21:57.053Z,29.20
2023-03-19T19:24:26.827Z,24.40
2023-03-19T19:26:56.903Z,23.00
2023-03-19T19:29:26.489Z,24.60
2023-03-19T19:31:56.478Z,24.40
2023-03-19T19:34:24.663Z,27.80
2023-03-19T19:36:57.678Z,27.20
2023-03-19T19:39:26.092Z,25.80
2023-03-19T19:41:55.970Z,23.20
2023-03-19T19:44:24.410Z,24.40
2023-03-19T19:46:56.004Z,27.00
2023-03-19T19:49:27.310Z,25.00
2023-03-19T19:51:56.309Z,24.60
2023-03-19T19:54:25.845Z,29.80
2023-03-19T19:56:54.291Z,18.80
2023-03-19T19:59:25.756Z,19.60
2023-03-19T20:01:54.035Z,25.20
2023-03-19T20:04:22.321Z,29.80
2023-03-19T20:06:52.328Z,30.40
2023-03-19T20:09:20.538Z,28.00
2023-03-19T20:11:49.530Z,31.00
2023-03-19T20:14:17.656Z,24.00
2023-03-19T20:16:46.142Z,27.40
2023-03-19T20:19:18.948Z,31.00
2023-03-19T20:21:47.405Z,25.00
2023-03-19T20:24:16.933Z,29.60
2023-03-19T20:26:45.070Z,28.80
2023-03-19T20:29:15.769Z,25.40
2023-03-19T20:31:45.740Z,22.00
2023-03-19T20:34:22.573Z,25.80
2023-03-19T20:36:54.137Z,25.40
2023-03-19T20:39:23.859Z,25.20
2023-03-19T20:41:52.178Z,27.00
2023-03-19T20:44:22.206Z,25.20
2023-03-19T20:46:50.477Z,27.20
2023-03-19T20:49:18.578Z,27.60
2023-03-19T20:51:46.809Z,26.60
2023-03-19T20:54:14.965Z,27.60
2023-03-19T20:56:45.950Z,29.00
2023-03-19T20:59:16.083Z,24.40
2023-03-19T21:01:44.271Z,26.20
2023-03-19T21:04:19.333Z,28.00
2023-03-19T21:06:53.541Z,28.00
2023-03-19T21:09:22.647Z,24.20
2023-03-19T21:11:53.044Z,28.20
2023-03-19T21:14:23.493Z,30.00
2023-03-19T21:16:51.682Z,28.40
2023-03-19T21:19:20.095Z,28.80
2023-03-19T21:21:48.398Z,27.00
2023-03-19T21:24:18.893Z,27.20
2023-03-19T21:26:47.615Z,24.60
2023-03-19T21:29:21.568Z,32.20
2023-03-19T21:31:49.798Z,24.80
2023-03-19T21:34:18.148Z,33.80
2023-03-19T21:36:46.222Z,25.60
2023-03-19T21:39:14.402Z,32.00
2023-03-19T21:41:42.882Z,28.40
2023-03-19T21:44:13.660Z,28.40
2023-03-19T21:46:46.757Z,29.80
2023-03-19T21:49:15.453Z,27.40
2023-03-19T21:51:44.069Z,31.20
2023-03-19T21:54:12.252Z,24.80
2023-03-19T21:56:42.088Z,23.00
2023-03-19T21:59:13.705Z,30.80
2023-03-19T22:01:44.552Z,30.20
2023-03-19T22:04:12.842Z,30.40
2023-03-19T22:06:43.211Z,32.00
2023-03-19T22:09:11.843Z,13.40
2023-03-19T22:11:41.990Z,30.60
2023-03-19T22:14:15.265Z,36.80
2023-03-19T22:16:45.952Z,33.40
2023-03-19T22:19:15.086Z,33.80
2023-03-19T22:21:43.474Z,33.40
2023-03-19T22:24:11.655Z,36.00
2023-03-19T22:26:41.004Z,32.80
2023-03-19T22:29:12.570Z,36.80
2023-03-19T22:31:41.620Z,36.00
2023-03-19T22:34:14.767Z,30.00
2023-03-19T22:36:44.061Z,24.60
2023-03-19T22:39:12.203Z,22.80
2023-03-19T22:41:41.090Z,31.00
2023-03-19T22:44:12.357Z,27.00
2023-03-19T22:46:40.604Z,37.80
2023-03-19T22:49:14.015Z,33.00
2023-03-19T22:51:43.769Z,29.80
2023-03-19T22:54:12.288Z,29.60
2023-03-19T22:56:40.764Z,28.00
2023-03-19T22:59:08.933Z,31.60
2023-03-19T23:01:39.528Z,10.40
2023-03-19T23:04:17.313Z,27.60
2023-03-19T23:06:46.896Z,28.80
2023-03-19T23:09:19.282Z,21.60
2023-03-19T23:11:48.500Z,27.20
2023-03-19T23:14:28.406Z,27.20
2023-03-19T23:19:26.470Z,27.60
2023-03-19T23:21:56.225Z,24.40
2023-03-19T23:24:24.407Z,30.80
2023-03-19T23:26:54.037Z,31.40
2023-03-19T23:29:24.515Z,31.20
2023-03-19T23:31:52.731Z,35.60
2023-03-19T23:34:20.798Z,25.00
2023-03-19T23:36:48.953Z,38.40
2023-03-19T23:39:18.748Z,34.40
2023-03-19T23:41:49.345Z,30.00
2023-03-19T23:44:19.574Z,32.20
2023-03-19T23:46:49.424Z,35.40
2023-03-19T23:49:18.224Z,36.20
2023-03-19T23:51:46.827Z,24.20
2023-03-19T23:54:27.838Z,34.80
2023-03-19T23:56:56.502Z,36.80
2023-03-19T23:59:24.698Z,36.80
